sensor_id;sensor_type;location;lat;lon;timestamp;P1;durP1;ratioP1;P2;durP2;ratioP2
35743;SDS011;21867;52.012;4.324;2023-06-24T00:00:00;3.47;;;2.45;;
35743;SDS011;21867;52.012;4.324;2023-06-24T00:02:32;3.83;;;2.20;;
35743;SDS011;21867;52.012;4.324;2023-06-24T00:04:59;4.05;;;2.55;;
35743;SDS011;21867;52.012;4.324;2023-06-24T00:10:38;4.40;;;2.55;;
35743;SDS011;21867;52.012;4.324;2023-06-24T00:21:18;3.60;;;2.60;;
35743;SDS011;21867;52.012;4.324;2023-06-24T00:23:45;3.80;;;2.50;;
35743;SDS011;21867;52.012;4.324;2023-06-24T00:26:13;2.38;;;2.17;;
35743;SDS011;21867;52.012;4.324;2023-06-24T00:28:40;3.00;;;2.80;;
35743;SDS011;21867;52.012;4.324;2023-06-24T00:31:07;3.28;;;2.97;;
35743;SDS011;21867;52.012;4.324;2023-06-24T00:33:35;2.92;;;2.50;;
35743;SDS011;21867;52.012;4.324;2023-06-24T00:36:02;5.68;;;2.65;;
35743;SDS011;21867;52.012;4.324;2023-06-24T00:38:34;9.63;;;2.33;;
35743;SDS011;21867;52.012;4.324;2023-06-24T00:41:02;4.05;;;2.60;;
35743;SDS011;21867;52.012;4.324;2023-06-24T00:43:30;3.05;;;2.75;;
35743;SDS011;21867;52.012;4.324;2023-06-24T00:45:58;2.88;;;2.65;;
35743;SDS011;21867;52.012;4.324;2023-06-24T00:48:25;4.38;;;3.28;;
35743;SDS011;21867;52.012;4.324;2023-06-24T00:50:52;3.97;;;2.75;;
35743;SDS011;21867;52.012;4.324;2023-06-24T00:53:20;3.30;;;2.58;;
35743;SDS011;21867;52.012;4.324;2023-06-24T00:55:48;3.35;;;2.67;;
35743;SDS011;21867;52.012;4.324;2023-06-24T00:58:16;3.67;;;2.55;;
35743;SDS011;21867;52.012;4.324;2023-06-24T01:00:45;4.53;;;3.00;;
35743;SDS011;21867;52.012;4.324;2023-06-24T01:03:12;3.15;;;2.47;;
35743;SDS011;21867;52.012;4.324;2023-06-24T01:05:40;2.80;;;2.60;;
35743;SDS011;21867;52.012;4.324;2023-06-24T01:08:15;2.85;;;2.40;;
35743;SDS011;21867;52.012;4.324;2023-06-24T01:10:44;6.45;;;3.22;;
35743;SDS011;21867;52.012;4.324;2023-06-24T01:13:13;8.80;;;3.10;;
35743;SDS011;21867;52.012;4.324;2023-06-24T01:15:41;3.20;;;2.65;;
35743;SDS011;21867;52.012;4.324;2023-06-24T01:23:53;3.10;;;2.80;;
35743;SDS011;21867;52.012;4.324;2023-06-24T01:26:33;5.47;;;3.53;;
35743;SDS011;21867;52.012;4.324;2023-06-24T01:35:25;3.88;;;2.67;;
35743;SDS011;21867;52.012;4.324;2023-06-24T01:37:54;4.95;;;3.25;;
35743;SDS011;21867;52.012;4.324;2023-06-24T01:40:25;3.60;;;2.80;;
35743;SDS011;21867;52.012;4.324;2023-06-24T01:42:54;4.72;;;3.05;;
35743;SDS011;21867;52.012;4.324;2023-06-24T01:45:25;4.28;;;2.90;;
35743;SDS011;21867;52.012;4.324;2023-06-24T01:48:06;3.67;;;3.20;;
35743;SDS011;21867;52.012;4.324;2023-06-24T01:54:22;4.47;;;3.10;;
35743;SDS011;21867;52.012;4.324;2023-06-24T01:56:57;4.97;;;3.08;;
35743;SDS011;21867;52.012;4.324;2023-06-24T02:00:11;4.00;;;3.37;;
35743;SDS011;21867;52.012;4.324;2023-06-24T02:06:17;4.07;;;3.35;;
35743;SDS011;21867;52.012;4.324;2023-06-24T02:08:45;8.95;;;3.85;;
35743;SDS011;21867;52.012;4.324;2023-06-24T02:11:16;3.40;;;3.10;;
35743;SDS011;21867;52.012;4.324;2023-06-24T02:13:44;6.40;;;3.70;;
35743;SDS011;21867;52.012;4.324;2023-06-24T02:23:24;4.93;;;3.50;;
35743;SDS011;21867;52.012;4.324;2023-06-24T02:25:53;4.97;;;3.10;;
35743;SDS011;21867;52.012;4.324;2023-06-24T02:28:34;3.57;;;3.27;;
35743;SDS011;21867;52.012;4.324;2023-06-24T02:31:35;6.23;;;3.73;;
35743;SDS011;21867;52.012;4.324;2023-06-24T02:34:22;5.57;;;3.90;;
35743;SDS011;21867;52.012;4.324;2023-06-24T02:36:50;5.73;;;4.37;;
35743;SDS011;21867;52.012;4.324;2023-06-24T02:39:19;3.83;;;3.43;;
35743;SDS011;21867;52.012;4.324;2023-06-24T02:41:47;8.17;;;4.17;;
35743;SDS011;21867;52.012;4.324;2023-06-24T02:44:15;5.97;;;4.03;;
35743;SDS011;21867;52.012;4.324;2023-06-24T02:46:43;5.13;;;4.17;;
35743;SDS011;21867;52.012;4.324;2023-06-24T02:49:12;4.67;;;4.20;;
35743;SDS011;21867;52.012;4.324;2023-06-24T02:54:41;5.53;;;4.13;;
35743;SDS011;21867;52.012;4.324;2023-06-24T02:57:38;6.67;;;4.70;;
35743;SDS011;21867;52.012;4.324;2023-06-24T03:00:16;5.60;;;4.30;;
35743;SDS011;21867;52.012;4.324;2023-06-24T03:03:03;4.37;;;3.97;;
35743;SDS011;21867;52.012;4.324;2023-06-24T03:05:32;5.30;;;4.10;;
35743;SDS011;21867;52.012;4.324;2023-06-24T03:08:01;5.87;;;4.73;;
35743;SDS011;21867;52.012;4.324;2023-06-24T03:16:38;4.57;;;3.90;;
35743;SDS011;21867;52.012;4.324;2023-06-24T03:19:34;8.27;;;4.78;;
35743;SDS011;21867;52.012;4.324;2023-06-24T03:22:37;5.53;;;4.77;;
35743;SDS011;21867;52.012;4.324;2023-06-24T03:35:13;7.20;;;4.63;;
35743;SDS011;21867;52.012;4.324;2023-06-24T03:37:52;8.77;;;4.50;;
35743;SDS011;21867;52.012;4.324;2023-06-24T03:41:00;5.37;;;4.87;;
35743;SDS011;21867;52.012;4.324;2023-06-24T03:43:28;4.90;;;4.27;;
35743;SDS011;21867;52.012;4.324;2023-06-24T03:45:56;9.37;;;4.30;;
35743;SDS011;21867;52.012;4.324;2023-06-24T03:48:23;5.00;;;4.50;;
35743;SDS011;21867;52.012;4.324;2023-06-24T03:50:52;5.37;;;4.53;;
35743;SDS011;21867;52.012;4.324;2023-06-24T03:53:20;6.47;;;4.83;;
35743;SDS011;21867;52.012;4.324;2023-06-24T03:55:53;5.73;;;4.27;;
35743;SDS011;21867;52.012;4.324;2023-06-24T03:58:20;5.93;;;4.77;;
35743;SDS011;21867;52.012;4.324;2023-06-24T04:00:48;6.50;;;4.47;;
35743;SDS011;21867;52.012;4.324;2023-06-24T04:03:15;6.87;;;4.50;;
35743;SDS011;21867;52.012;4.324;2023-06-24T04:05:56;6.07;;;4.20;;
35743;SDS011;21867;52.012;4.324;2023-06-24T04:11:16;8.10;;;5.03;;
35743;SDS011;21867;52.012;4.324;2023-06-24T04:13:44;5.63;;;4.73;;
35743;SDS011;21867;52.012;4.324;2023-06-24T04:16:11;7.70;;;5.33;;
35743;SDS011;21867;52.012;4.324;2023-06-24T04:18:38;5.60;;;5.10;;
35743;SDS011;21867;52.012;4.324;2023-06-24T04:21:07;8.87;;;4.67;;
35743;SDS011;21867;52.012;4.324;2023-06-24T04:23:34;8.67;;;5.70;;
35743;SDS011;21867;52.012;4.324;2023-06-24T04:26:05;6.87;;;6.00;;
35743;SDS011;21867;52.012;4.324;2023-06-24T04:28:32;7.07;;;5.30;;
35743;SDS011;21867;52.012;4.324;2023-06-24T04:31:00;6.83;;;5.40;;
35743;SDS011;21867;52.012;4.324;2023-06-24T04:33:27;7.73;;;5.77;;
35743;SDS011;21867;52.012;4.324;2023-06-24T04:35:55;6.90;;;6.00;;
35743;SDS011;21867;52.012;4.324;2023-06-24T04:41:12;8.97;;;5.77;;
35743;SDS011;21867;52.012;4.324;2023-06-24T04:43:40;6.53;;;5.33;;
35743;SDS011;21867;52.012;4.324;2023-06-24T04:46:07;10.33;;;5.93;;
35743;SDS011;21867;52.012;4.324;2023-06-24T04:48:34;7.07;;;5.53;;
35743;SDS011;21867;52.012;4.324;2023-06-24T04:51:02;8.27;;;5.37;;
35743;SDS011;21867;52.012;4.324;2023-06-24T04:53:29;5.80;;;5.20;;
35743;SDS011;21867;52.012;4.324;2023-06-24T04:56:13;7.63;;;5.30;;
35743;SDS011;21867;52.012;4.324;2023-06-24T04:58:40;5.97;;;5.17;;
35743;SDS011;21867;52.012;4.324;2023-06-24T05:01:08;7.75;;;6.40;;
35743;SDS011;21867;52.012;4.324;2023-06-24T05:03:53;7.27;;;6.40;;
35743;SDS011;21867;52.012;4.324;2023-06-24T05:10:00;7.33;;;5.70;;
35743;SDS011;21867;52.012;4.324;2023-06-24T05:12:29;6.50;;;5.90;;
35743;SDS011;21867;52.012;4.324;2023-06-24T05:14:56;7.57;;;5.63;;
35743;SDS011;21867;52.012;4.324;2023-06-24T05:17:23;6.27;;;5.57;;
35743;SDS011;21867;52.012;4.324;2023-06-24T05:19:51;7.03;;;5.90;;
35743;SDS011;21867;52.012;4.324;2023-06-24T05:22:18;8.07;;;6.60;;
35743;SDS011;21867;52.012;4.324;2023-06-24T05:24:45;9.53;;;6.30;;
35743;SDS011;21867;52.012;4.324;2023-06-24T05:27:13;8.20;;;6.20;;
35743;SDS011;21867;52.012;4.324;2023-06-24T05:29:41;9.70;;;6.77;;
35743;SDS011;21867;52.012;4.324;2023-06-24T05:32:09;14.73;;;7.00;;
35743;SDS011;21867;52.012;4.324;2023-06-24T05:34:36;7.97;;;6.40;;
35743;SDS011;21867;52.012;4.324;2023-06-24T05:37:03;10.13;;;7.20;;
35743;SDS011;21867;52.012;4.324;2023-06-24T05:39:31;7.43;;;6.20;;
35743;SDS011;21867;52.012;4.324;2023-06-24T05:41:58;8.90;;;5.97;;
35743;SDS011;21867;52.012;4.324;2023-06-24T05:44:25;9.17;;;6.97;;
35743;SDS011;21867;52.012;4.324;2023-06-24T05:46:54;9.13;;;6.97;;
35743;SDS011;21867;52.012;4.324;2023-06-24T05:49:21;11.50;;;6.73;;
35743;SDS011;21867;52.012;4.324;2023-06-24T05:51:49;12.40;;;6.87;;
35743;SDS011;21867;52.012;4.324;2023-06-24T05:54:16;10.93;;;6.87;;
35743;SDS011;21867;52.012;4.324;2023-06-24T05:56:43;8.30;;;6.10;;
35743;SDS011;21867;52.012;4.324;2023-06-24T05:59:11;9.13;;;7.00;;
35743;SDS011;21867;52.012;4.324;2023-06-24T06:01:38;8.77;;;6.23;;
35743;SDS011;21867;52.012;4.324;2023-06-24T06:04:07;7.97;;;7.17;;
35743;SDS011;21867;52.012;4.324;2023-06-24T06:06:34;9.83;;;7.53;;
35743;SDS011;21867;52.012;4.324;2023-06-24T06:09:03;9.47;;;6.27;;
35743;SDS011;21867;52.012;4.324;2023-06-24T06:11:30;8.47;;;6.37;;
35743;SDS011;21867;52.012;4.324;2023-06-24T06:13:57;9.00;;;6.07;;
35743;SDS011;21867;52.012;4.324;2023-06-24T06:16:25;9.00;;;6.50;;
35743;SDS011;21867;52.012;4.324;2023-06-24T06:19:09;8.43;;;6.27;;
35743;SDS011;21867;52.012;4.324;2023-06-24T06:21:41;10.97;;;6.77;;
35743;SDS011;21867;52.012;4.324;2023-06-24T06:24:27;14.13;;;7.27;;
35743;SDS011;21867;52.012;4.324;2023-06-24T06:26:55;10.83;;;7.27;;
35743;SDS011;21867;52.012;4.324;2023-06-24T06:29:44;8.20;;;7.13;;
35743;SDS011;21867;52.012;4.324;2023-06-24T06:32:12;8.23;;;6.60;;
35743;SDS011;21867;52.012;4.324;2023-06-24T06:34:46;8.90;;;6.77;;
35743;SDS011;21867;52.012;4.324;2023-06-24T06:37:13;10.67;;;6.37;;
35743;SDS011;21867;52.012;4.324;2023-06-24T06:39:43;8.13;;;6.80;;
35743;SDS011;21867;52.012;4.324;2023-06-24T06:42:11;7.67;;;6.10;;
35743;SDS011;21867;52.012;4.324;2023-06-24T06:44:38;10.10;;;6.47;;
35743;SDS011;21867;52.012;4.324;2023-06-24T06:47:06;12.90;;;7.63;;
35743;SDS011;21867;52.012;4.324;2023-06-24T06:49:33;7.93;;;6.97;;
35743;SDS011;21867;52.012;4.324;2023-06-24T06:52:02;8.23;;;5.70;;
35743;SDS011;21867;52.012;4.324;2023-06-24T06:57:31;9.50;;;7.40;;
35743;SDS011;21867;52.012;4.324;2023-06-24T06:59:58;8.13;;;6.17;;
35743;SDS011;21867;52.012;4.324;2023-06-24T07:02:26;7.90;;;6.20;;
35743;SDS011;21867;52.012;4.324;2023-06-24T07:04:53;10.02;;;6.90;;
35743;SDS011;21867;52.012;4.324;2023-06-24T07:07:22;11.10;;;6.17;;
35743;SDS011;21867;52.012;4.324;2023-06-24T07:09:50;10.07;;;7.03;;
35743;SDS011;21867;52.012;4.324;2023-06-24T07:14:54;9.70;;;7.87;;
35743;SDS011;21867;52.012;4.324;2023-06-24T07:17:22;8.95;;;7.43;;
35743;SDS011;21867;52.012;4.324;2023-06-24T07:19:52;8.37;;;7.00;;
35743;SDS011;21867;52.012;4.324;2023-06-24T07:22:21;11.00;;;8.03;;
35743;SDS011;21867;52.012;4.324;2023-06-24T07:24:49;9.47;;;7.33;;
35743;SDS011;21867;52.012;4.324;2023-06-24T07:27:17;12.53;;;7.50;;
35743;SDS011;21867;52.012;4.324;2023-06-24T07:36:56;11.87;;;7.73;;
35743;SDS011;21867;52.012;4.324;2023-06-24T07:39:42;8.13;;;5.68;;
35743;SDS011;21867;52.012;4.324;2023-06-24T07:42:31;10.03;;;6.57;;
35743;SDS011;21867;52.012;4.324;2023-06-24T07:44:59;9.90;;;7.38;;
35743;SDS011;21867;52.012;4.324;2023-06-24T07:47:28;9.38;;;7.03;;
35743;SDS011;21867;52.012;4.324;2023-06-24T07:49:56;7.77;;;6.50;;
35743;SDS011;21867;52.012;4.324;2023-06-24T07:52:23;16.00;;;7.90;;
35743;SDS011;21867;52.012;4.324;2023-06-24T07:54:52;11.03;;;7.27;;
35743;SDS011;21867;52.012;4.324;2023-06-24T07:57:19;12.27;;;6.80;;
35743;SDS011;21867;52.012;4.324;2023-06-24T07:59:47;14.20;;;8.77;;
35743;SDS011;21867;52.012;4.324;2023-06-24T08:02:14;9.73;;;6.68;;
35743;SDS011;21867;52.012;4.324;2023-06-24T08:04:41;8.27;;;6.30;;
35743;SDS011;21867;52.012;4.324;2023-06-24T08:07:09;12.23;;;6.47;;
35743;SDS011;21867;52.012;4.324;2023-06-24T08:09:36;10.82;;;6.95;;
35743;SDS011;21867;52.012;4.324;2023-06-24T08:12:05;7.90;;;6.28;;
35743;SDS011;21867;52.012;4.324;2023-06-24T08:14:32;10.50;;;7.15;;
35743;SDS011;21867;52.012;4.324;2023-06-24T08:17:00;8.90;;;7.32;;
35743;SDS011;21867;52.012;4.324;2023-06-24T08:19:27;9.23;;;6.60;;
35743;SDS011;21867;52.012;4.324;2023-06-24T08:21:54;10.48;;;8.10;;
35743;SDS011;21867;52.012;4.324;2023-06-24T08:24:21;9.32;;;6.93;;
35743;SDS011;21867;52.012;4.324;2023-06-24T08:26:49;12.52;;;8.10;;
35743;SDS011;21867;52.012;4.324;2023-06-24T08:29:17;16.63;;;8.80;;
35743;SDS011;21867;52.012;4.324;2023-06-24T08:31:46;14.45;;;7.65;;
35743;SDS011;21867;52.012;4.324;2023-06-24T08:34:13;7.95;;;6.78;;
35743;SDS011;21867;52.012;4.324;2023-06-24T08:36:40;5.28;;;4.75;;
35743;SDS011;21867;52.012;4.324;2023-06-24T08:39:08;7.60;;;5.82;;
35743;SDS011;21867;52.012;4.324;2023-06-24T08:41:35;7.95;;;5.43;;
35743;SDS011;21867;52.012;4.324;2023-06-24T08:44:02;9.65;;;6.15;;
35743;SDS011;21867;52.012;4.324;2023-06-24T08:46:31;16.90;;;8.52;;
35743;SDS011;21867;52.012;4.324;2023-06-24T08:48:59;14.80;;;7.32;;
35743;SDS011;21867;52.012;4.324;2023-06-24T08:51:29;9.40;;;6.85;;
35743;SDS011;21867;52.012;4.324;2023-06-24T08:53:59;13.43;;;6.90;;
35743;SDS011;21867;52.012;4.324;2023-06-24T08:56:26;8.32;;;5.13;;
35743;SDS011;21867;52.012;4.324;2023-06-24T08:59:06;12.02;;;6.63;;
35743;SDS011;21867;52.012;4.324;2023-06-24T09:01:47;6.95;;;5.05;;
35743;SDS011;21867;52.012;4.324;2023-06-24T09:04:20;11.25;;;6.70;;
35743;SDS011;21867;52.012;4.324;2023-06-24T09:06:48;9.73;;;6.00;;
35743;SDS011;21867;52.012;4.324;2023-06-24T09:09:18;8.70;;;5.05;;
35743;SDS011;21867;52.012;4.324;2023-06-24T09:11:52;10.48;;;5.45;;
35743;SDS011;21867;52.012;4.324;2023-06-24T09:14:19;11.48;;;5.82;;
35743;SDS011;21867;52.012;4.324;2023-06-24T09:19:37;14.35;;;7.47;;
35743;SDS011;21867;52.012;4.324;2023-06-24T09:22:10;7.75;;;6.47;;
35743;SDS011;21867;52.012;4.324;2023-06-24T09:24:38;9.60;;;6.38;;
35743;SDS011;21867;52.012;4.324;2023-06-24T09:27:14;9.10;;;6.28;;
35743;SDS011;21867;52.012;4.324;2023-06-24T09:32:47;9.10;;;6.18;;
35743;SDS011;21867;52.012;4.324;2023-06-24T09:35:17;11.00;;;7.23;;
35743;SDS011;21867;52.012;4.324;2023-06-24T09:37:48;8.98;;;5.63;;
35743;SDS011;21867;52.012;4.324;2023-06-24T09:40:16;8.18;;;7.00;;
35743;SDS011;21867;52.012;4.324;2023-06-24T09:42:52;10.68;;;6.55;;
35743;SDS011;21867;52.012;4.324;2023-06-24T09:45:21;10.50;;;6.55;;
35743;SDS011;21867;52.012;4.324;2023-06-24T09:47:48;9.00;;;6.25;;
35743;SDS011;21867;52.012;4.324;2023-06-24T09:50:16;9.57;;;6.97;;
35743;SDS011;21867;52.012;4.324;2023-06-24T09:52:45;7.88;;;5.55;;
35743;SDS011;21867;52.012;4.324;2023-06-24T09:55:12;9.73;;;5.35;;
35743;SDS011;21867;52.012;4.324;2023-06-24T09:57:52;10.95;;;5.28;;
35743;SDS011;21867;52.012;4.324;2023-06-24T10:03:56;8.75;;;6.20;;
35743;SDS011;21867;52.012;4.324;2023-06-24T10:06:24;11.82;;;6.00;;
35743;SDS011;21867;52.012;4.324;2023-06-24T10:08:54;11.85;;;5.55;;
35743;SDS011;21867;52.012;4.324;2023-06-24T10:11:21;6.07;;;5.22;;
35743;SDS011;21867;52.012;4.324;2023-06-24T10:13:49;4.85;;;3.53;;
35743;SDS011;21867;52.012;4.324;2023-06-24T10:18:59;5.25;;;4.40;;
35743;SDS011;21867;52.012;4.324;2023-06-24T10:30:41;10.25;;;4.35;;
35743;SDS011;21867;52.012;4.324;2023-06-24T10:37:31;9.10;;;4.45;;
35743;SDS011;21867;52.012;4.324;2023-06-24T10:39:59;7.93;;;5.30;;
35743;SDS011;21867;52.012;4.324;2023-06-24T10:42:30;7.38;;;4.57;;
35743;SDS011;21867;52.012;4.324;2023-06-24T10:44:59;8.25;;;4.70;;
35743;SDS011;21867;52.012;4.324;2023-06-24T10:47:28;9.50;;;5.10;;
35743;SDS011;21867;52.012;4.324;2023-06-24T10:49:56;9.70;;;5.75;;
35743;SDS011;21867;52.012;4.324;2023-06-24T10:52:24;8.05;;;5.05;;
35743;SDS011;21867;52.012;4.324;2023-06-24T10:54:52;7.97;;;5.75;;
35743;SDS011;21867;52.012;4.324;2023-06-24T10:57:22;7.93;;;5.47;;
35743;SDS011;21867;52.012;4.324;2023-06-24T10:59:51;10.40;;;5.65;;
35743;SDS011;21867;52.012;4.324;2023-06-24T11:02:19;10.82;;;5.28;;
35743;SDS011;21867;52.012;4.324;2023-06-24T11:04:49;5.82;;;4.43;;
35743;SDS011;21867;52.012;4.324;2023-06-24T11:07:17;7.05;;;5.20;;
35743;SDS011;21867;52.012;4.324;2023-06-24T11:09:48;8.30;;;5.32;;
35743;SDS011;21867;52.012;4.324;2023-06-24T11:12:15;13.00;;;5.40;;
35743;SDS011;21867;52.012;4.324;2023-06-24T11:14:43;9.70;;;5.55;;
35743;SDS011;21867;52.012;4.324;2023-06-24T11:17:10;10.63;;;6.07;;
35743;SDS011;21867;52.012;4.324;2023-06-24T11:19:38;8.95;;;5.55;;
35743;SDS011;21867;52.012;4.324;2023-06-24T11:24:59;5.65;;;4.68;;
35743;SDS011;21867;52.012;4.324;2023-06-24T11:27:27;10.00;;;4.78;;
35743;SDS011;21867;52.012;4.324;2023-06-24T11:29:55;5.80;;;4.85;;
35743;SDS011;21867;52.012;4.324;2023-06-24T11:35:30;6.93;;;5.18;;
35743;SDS011;21867;52.012;4.324;2023-06-24T11:37:57;8.05;;;5.57;;
35743;SDS011;21867;52.012;4.324;2023-06-24T11:40:26;9.38;;;6.95;;
35743;SDS011;21867;52.012;4.324;2023-06-24T11:42:54;10.82;;;5.82;;
35743;SDS011;21867;52.012;4.324;2023-06-24T11:45:21;7.53;;;6.13;;
35743;SDS011;21867;52.012;4.324;2023-06-24T11:47:49;10.18;;;6.60;;
35743;SDS011;21867;52.012;4.324;2023-06-24T11:50:35;6.93;;;5.78;;
35743;SDS011;21867;52.012;4.324;2023-06-24T11:53:03;8.35;;;5.97;;
35743;SDS011;21867;52.012;4.324;2023-06-24T11:55:32;10.82;;;7.22;;
35743;SDS011;21867;52.012;4.324;2023-06-24T11:58:00;10.88;;;5.55;;
35743;SDS011;21867;52.012;4.324;2023-06-24T12:00:38;8.48;;;5.70;;
35743;SDS011;21867;52.012;4.324;2023-06-24T12:12:15;4.93;;;4.35;;
35743;SDS011;21867;52.012;4.324;2023-06-24T12:14:52;6.13;;;5.32;;
35743;SDS011;21867;52.012;4.324;2023-06-24T12:17:42;5.00;;;3.60;;
35743;SDS011;21867;52.012;4.324;2023-06-24T12:24:16;6.82;;;6.15;;
35743;SDS011;21867;52.012;4.324;2023-06-24T12:27:35;7.20;;;5.65;;
35743;SDS011;21867;52.012;4.324;2023-06-24T12:53:11;8.65;;;7.55;;
35743;SDS011;21867;52.012;4.324;2023-06-24T12:55:38;10.00;;;7.95;;
35743;SDS011;21867;52.012;4.324;2023-06-24T12:58:06;10.82;;;7.57;;
35743;SDS011;21867;52.012;4.324;2023-06-24T13:00:34;11.98;;;9.27;;
35743;SDS011;21867;52.012;4.324;2023-06-24T13:03:02;11.23;;;8.55;;
35743;SDS011;21867;52.012;4.324;2023-06-24T13:05:29;10.35;;;9.23;;
35743;SDS011;21867;52.012;4.324;2023-06-24T13:07:57;8.93;;;7.30;;
35743;SDS011;21867;52.012;4.324;2023-06-24T13:10:26;11.18;;;10.02;;
35743;SDS011;21867;52.012;4.324;2023-06-24T13:12:53;11.88;;;8.93;;
35743;SDS011;21867;52.012;4.324;2023-06-24T13:15:20;11.55;;;8.63;;
35743;SDS011;21867;52.012;4.324;2023-06-24T13:17:48;10.27;;;9.18;;
35743;SDS011;21867;52.012;4.324;2023-06-24T13:20:15;11.50;;;9.93;;
35743;SDS011;21867;52.012;4.324;2023-06-24T13:22:43;10.65;;;9.48;;
35743;SDS011;21867;52.012;4.324;2023-06-24T13:25:10;10.30;;;9.27;;
35743;SDS011;21867;52.012;4.324;2023-06-24T13:27:43;16.40;;;10.30;;
35743;SDS011;21867;52.012;4.324;2023-06-24T13:30:11;13.57;;;11.68;;
35743;SDS011;21867;52.012;4.324;2023-06-24T13:32:41;11.52;;;9.82;;
35743;SDS011;21867;52.012;4.324;2023-06-24T13:35:10;11.98;;;10.70;;
35743;SDS011;21867;52.012;4.324;2023-06-24T13:37:41;11.98;;;9.93;;
35743;SDS011;21867;52.012;4.324;2023-06-24T13:40:08;11.77;;;10.00;;
35743;SDS011;21867;52.012;4.324;2023-06-24T13:42:36;12.00;;;9.40;;
35743;SDS011;21867;52.012;4.324;2023-06-24T13:45:05;16.08;;;10.82;;
35743;SDS011;21867;52.012;4.324;2023-06-24T13:47:33;13.98;;;10.55;;
35743;SDS011;21867;52.012;4.324;2023-06-24T13:50:00;11.48;;;10.27;;
35743;SDS011;21867;52.012;4.324;2023-06-24T13:52:27;12.50;;;10.77;;
35743;SDS011;21867;52.012;4.324;2023-06-24T13:54:55;13.35;;;10.70;;
35743;SDS011;21867;52.012;4.324;2023-06-24T13:57:22;14.48;;;11.32;;
35743;SDS011;21867;52.012;4.324;2023-06-24T13:59:49;11.98;;;10.70;;
35743;SDS011;21867;52.012;4.324;2023-06-24T14:02:18;11.18;;;10.07;;
35743;SDS011;21867;52.012;4.324;2023-06-24T14:04:45;10.63;;;9.57;;
35743;SDS011;21867;52.012;4.324;2023-06-24T14:07:13;14.15;;;10.23;;
35743;SDS011;21867;52.012;4.324;2023-06-24T14:09:40;10.98;;;9.50;;
35743;SDS011;21867;52.012;4.324;2023-06-24T14:12:08;14.52;;;11.13;;
35743;SDS011;21867;52.012;4.324;2023-06-24T14:14:36;14.45;;;11.05;;
35743;SDS011;21867;52.012;4.324;2023-06-24T14:17:03;13.98;;;12.00;;
35743;SDS011;21867;52.012;4.324;2023-06-24T14:22:27;11.90;;;10.68;;
35743;SDS011;21867;52.012;4.324;2023-06-24T14:24:55;13.35;;;10.98;;
35743;SDS011;21867;52.012;4.324;2023-06-24T14:27:22;11.43;;;10.32;;
35743;SDS011;21867;52.012;4.324;2023-06-24T14:29:49;12.00;;;10.70;;
35743;SDS011;21867;52.012;4.324;2023-06-24T14:32:35;12.70;;;10.77;;
35743;SDS011;21867;52.012;4.324;2023-06-24T14:37:51;11.63;;;9.45;;
35743;SDS011;21867;52.012;4.324;2023-06-24T14:40:18;11.27;;;9.82;;
35743;SDS011;21867;52.012;4.324;2023-06-24T14:42:46;12.75;;;11.43;;
35743;SDS011;21867;52.012;4.324;2023-06-24T14:45:13;15.75;;;10.70;;
35743;SDS011;21867;52.012;4.324;2023-06-24T14:47:41;15.25;;;11.55;;
35743;SDS011;21867;52.012;4.324;2023-06-24T14:50:09;13.15;;;11.75;;
35743;SDS011;21867;52.012;4.324;2023-06-24T14:52:36;10.63;;;9.52;;
35743;SDS011;21867;52.012;4.324;2023-06-24T14:55:06;12.73;;;10.73;;
35743;SDS011;21867;52.012;4.324;2023-06-24T14:57:34;12.77;;;11.52;;
35743;SDS011;21867;52.012;4.324;2023-06-24T15:00:13;13.57;;;12.23;;
35743;SDS011;21867;52.012;4.324;2023-06-24T15:02:41;15.90;;;10.00;;
35743;SDS011;21867;52.012;4.324;2023-06-24T15:05:09;12.13;;;10.85;;
35743;SDS011;21867;52.012;4.324;2023-06-24T15:07:36;14.63;;;13.00;;
35743;SDS011;21867;52.012;4.324;2023-06-24T15:10:07;13.65;;;11.77;;
35743;SDS011;21867;52.012;4.324;2023-06-24T15:12:35;15.68;;;12.70;;
35743;SDS011;21867;52.012;4.324;2023-06-24T15:15:03;13.15;;;10.43;;
35743;SDS011;21867;52.012;4.324;2023-06-24T15:17:31;12.13;;;10.98;;
35743;SDS011;21867;52.012;4.324;2023-06-24T15:19:58;14.10;;;11.65;;
35743;SDS011;21867;52.012;4.324;2023-06-24T15:22:26;12.23;;;10.40;;
35743;SDS011;21867;52.012;4.324;2023-06-24T15:24:54;10.90;;;8.65;;
35743;SDS011;21867;52.012;4.324;2023-06-24T15:27:23;10.27;;;9.27;;
35743;SDS011;21867;52.012;4.324;2023-06-24T15:29:50;10.95;;;9.02;;
35743;SDS011;21867;52.012;4.324;2023-06-24T15:32:18;10.52;;;9.43;;
35743;SDS011;21867;52.012;4.324;2023-06-24T15:34:45;8.45;;;7.15;;
35743;SDS011;21867;52.012;4.324;2023-06-24T15:37:13;9.00;;;8.10;;
35743;SDS011;21867;52.012;4.324;2023-06-24T15:39:40;7.25;;;6.50;;
35743;SDS011;21867;52.012;4.324;2023-06-24T15:42:08;7.07;;;6.32;;
35743;SDS011;21867;52.012;4.324;2023-06-24T15:44:37;8.80;;;7.00;;
35743;SDS011;21867;52.012;4.324;2023-06-24T15:47:04;7.90;;;7.20;;
35743;SDS011;21867;52.012;4.324;2023-06-24T15:49:32;9.77;;;6.82;;
35743;SDS011;21867;52.012;4.324;2023-06-24T15:52:00;7.95;;;6.55;;
35743;SDS011;21867;52.012;4.324;2023-06-24T15:54:27;9.43;;;7.90;;
35743;SDS011;21867;52.012;4.324;2023-06-24T15:56:54;6.55;;;5.90;;
35743;SDS011;21867;52.012;4.324;2023-06-24T15:59:21;7.47;;;6.78;;
35743;SDS011;21867;52.012;4.324;2023-06-24T16:01:50;6.60;;;6.00;;
35743;SDS011;21867;52.012;4.324;2023-06-24T16:04:18;7.32;;;5.50;;
35743;SDS011;21867;52.012;4.324;2023-06-24T16:06:45;5.60;;;5.10;;
35743;SDS011;21867;52.012;4.324;2023-06-24T16:09:13;7.75;;;6.15;;
35743;SDS011;21867;52.012;4.324;2023-06-24T16:11:40;7.72;;;6.93;;
35743;SDS011;21867;52.012;4.324;2023-06-24T16:14:08;7.53;;;6.13;;
35743;SDS011;21867;52.012;4.324;2023-06-24T16:16:35;6.70;;;6.13;;
35743;SDS011;21867;52.012;4.324;2023-06-24T16:19:04;5.82;;;5.32;;
35743;SDS011;21867;52.012;4.324;2023-06-24T16:21:31;7.00;;;6.40;;
35743;SDS011;21867;52.012;4.324;2023-06-24T16:23:59;5.50;;;5.00;;
35743;SDS011;21867;52.012;4.324;2023-06-24T16:26:26;6.78;;;5.03;;
35743;SDS011;21867;52.012;4.324;2023-06-24T16:29:02;5.30;;;4.82;;
35743;SDS011;21867;52.012;4.324;2023-06-24T16:31:30;5.03;;;4.53;;
35743;SDS011;21867;52.012;4.324;2023-06-24T16:33:58;6.03;;;4.25;;
35743;SDS011;21867;52.012;4.324;2023-06-24T16:36:27;5.25;;;4.63;;
35743;SDS011;21867;52.012;4.324;2023-06-24T16:38:54;5.40;;;4.90;;
35743;SDS011;21867;52.012;4.324;2023-06-24T16:41:22;6.20;;;4.68;;
35743;SDS011;21867;52.012;4.324;2023-06-24T16:43:49;7.85;;;4.95;;
35743;SDS011;21867;52.012;4.324;2023-06-24T16:46:17;5.28;;;4.53;;
35743;SDS011;21867;52.012;4.324;2023-06-24T16:48:44;4.47;;;4.07;;
35743;SDS011;21867;52.012;4.324;2023-06-24T16:51:12;7.13;;;4.55;;
35743;SDS011;21867;52.012;4.324;2023-06-24T16:53:40;5.00;;;4.43;;
35743;SDS011;21867;52.012;4.324;2023-06-24T16:56:08;6.05;;;4.70;;
35743;SDS011;21867;52.012;4.324;2023-06-24T16:58:35;4.28;;;3.88;;
35743;SDS011;21867;52.012;4.324;2023-06-24T17:01:03;5.07;;;4.00;;
35743;SDS011;21867;52.012;4.324;2023-06-24T17:03:33;4.28;;;3.65;;
35743;SDS011;21867;52.012;4.324;2023-06-24T17:06:01;5.18;;;3.72;;
35743;SDS011;21867;52.012;4.324;2023-06-24T17:08:28;3.70;;;3.38;;
35743;SDS011;21867;52.012;4.324;2023-06-24T17:10:57;7.97;;;4.30;;
35743;SDS011;21867;52.012;4.324;2023-06-24T17:13:24;4.20;;;3.80;;
35743;SDS011;21867;52.012;4.324;2023-06-24T17:15:51;6.20;;;4.57;;
35743;SDS011;21867;52.012;4.324;2023-06-24T17:18:19;4.40;;;4.00;;
35743;SDS011;21867;52.012;4.324;2023-06-24T17:20:46;4.13;;;3.72;;
35743;SDS011;21867;52.012;4.324;2023-06-24T17:23:14;4.90;;;4.10;;
35743;SDS011;21867;52.012;4.324;2023-06-24T17:25:41;5.63;;;4.43;;
35743;SDS011;21867;52.012;4.324;2023-06-24T17:28:10;6.50;;;4.72;;
35743;SDS011;21867;52.012;4.324;2023-06-24T17:30:37;4.60;;;4.20;;